Time;durP1;ratioP1;P1;durP2;ratioP2;P2;SDS_P1;SDS_P2;PMS_P1;PMS_P2;Temp;Humidity;BMP_temperature;BMP_pressure;BME280_temperature;BME280_humidity;BME280_pressure;Samples;Min_cycle;Max_cycle;Signal;HPM_P1;HPM_P2
2021/01/16 00:00:14;;;;;;;1.23;1.13;;;1.10;99.20;;;;;;4190972;28;20036;-89
2021/01/16 00:02:23;;;;;;;0.47;0.47;;;1.10;99.50;;;;;;4189995;28;20048;-91
2021/01/16 00:04:24;;;;;;;4.70;2.47;;;1.10;99.50;;;;;;4182124;28;20049;-90
2021/01/16 00:06:28;;;;;;;1.25;0.95;;;1.10;99.30;;;;;;4198653;28;20055;-89
2021/01/16 00:08:31;;;;;;;5.73;0.67;;;1.10;99.40;;;;;;4175700;28;20509;-91
2021/01/16 00:10:43;;;;;;;1.33;1.27;;;1.10;99.50;;;;;;4167611;28;20308;-90
2021/01/16 00:12:49;;;;;;;0.13;0.13;;;1.10;99.80;;;;;;4172286;28;20049;-89
2021/01/16 00:14:50;;;;;;;2.95;1.65;;;1.10;99.80;;;;;;4173827;28;20045;-90
2021/01/16 00:16:52;;;;;;;2.47;1.02;;;1.10;99.60;;;;;;4186385;28;20052;-90
2021/01/16 00:18:53;;;;;;;0.43;0.43;;;1.10;99.40;;;;;;4182049;28;20041;-91
2021/01/16 00:20:56;;;;;;;1.92;1.83;;;1.10;99.60;;;;;;4174670;28;20456;-89
2021/01/16 00:22:58;;;;;;;1.65;1.55;;;1.10;99.60;;;;;;4185912;28;20054;-89
2021/01/16 00:24:59;;;;;;;2.05;1.42;;;1.10;99.50;;;;;;4181972;28;20049;-89
2021/01/16 00:27:01;;;;;;;1.60;1.33;;;1.10;99.30;;;;;;4169375;28;20524;-90
2021/01/16 00:29:02;;;;;;;2.17;1.95;;;1.10;99.00;;;;;;4198116;28;20515;-90
2021/01/16 00:31:04;;;;;;;1.27;0.77;;;1.10;99.40;;;;;;4166715;28;20195;-88
2021/01/16 00:33:19;;;;;;;0.82;0.60;;;1.10;99.10;;;;;;4179839;28;20072;-89
2021/01/16 00:35:21;;;;;;;1.23;1.10;;;1.10;98.90;;;;;;4199168;28;20147;-89
2021/01/16 00:37:22;;;;;;;0.52;0.52;;;1.10;99.30;;;;;;4165555;28;20045;-89
2021/01/16 00:39:23;;;;;;;1.65;1.52;;;1.10;99.20;;;;;;4182936;28;20063;-90
2021/01/16 00:41:25;;;;;;;1.15;1.15;;;1.10;99.30;;;;;;4193251;28;20094;-89
2021/01/16 00:43:26;;;;;;;1.27;1.17;;;1.10;99.10;;;;;;4165563;28;20057;-91
2021/01/16 00:45:27;;;;;;;1.10;0.95;;;1.10;99.10;;;;;;4181576;28;20063;-89
2021/01/16 00:47:28;;;;;;;1.00;1.00;;;1.10;99.00;;;;;;4176709;28;20149;-89
2021/01/16 00:49:30;;;;;;;1.63;0.80;;;1.10;98.90;;;;;;4197923;28;20138;-90
2021/01/16 00:51:31;;;;;;;0.30;0.30;;;1.10;98.60;;;;;;4171081;28;20069;-89
2021/01/16 00:53:32;;;;;;;0.55;0.55;;;1.10;98.50;;;;;;4178298;28;20659;-89
2021/01/16 00:55:35;;;;;;;0.60;0.60;;;1.10;98.60;;;;;;4186582;28;20556;-88
2021/01/16 00:57:36;;;;;;;0.50;0.50;;;1.10;98.40;;;;;;4174403;28;20045;-88
2021/01/16 00:59:37;;;;;;;1.33;1.23;;;1.10;98.50;;;;;;4175895;28;20135;-89
2021/01/16 01:01:39;;;;;;;1.33;1.23;;;1.10;98.70;;;;;;4181809;28;20041;-89
2021/01/16 01:03:41;;;;;;;0.55;0.50;;;1.10;98.70;;;;;;4180716;28;20108;-89
2021/01/16 01:05:43;;;;;;;0.80;0.80;;;1.10;98.50;;;;;;4172358;28;20077;-89
2021/01/16 01:07:53;;;;;;;0.40;0.40;;;1.10;98.40;;;;;;4184613;28;20052;-89
2021/01/16 01:09:54;;;;;;;0.93;0.75;;;1.10;98.00;;;;;;4177785;28;20045;-89
2021/01/16 01:11:55;;;;;;;1.40;1.27;;;1.00;98.30;;;;;;4176109;28;20044;-88
2021/01/16 01:13:57;;;;;;;0.98;0.77;;;1.00;98.20;;;;;;4197081;28;20048;-89
2021/01/16 01:15:58;;;;;;;1.60;1.50;;;1.00;98.50;;;;;;4181158;28;20052;-90
2021/01/16 01:18:00;;;;;;;0.73;0.73;;;1.00;98.50;;;;;;4189571;28;20040;-89
2021/01/16 01:20:03;;;;;;;0.65;0.50;;;1.00;98.30;;;;;;4195316;28;20131;-89
2021/01/16 01:22:04;;;;;;;0.80;0.80;;;1.00;98.10;;;;;;4180796;28;20044;-90
2021/01/16 01:24:06;;;;;;;0.57;0.57;;;1.00;98.00;;;;;;4199147;28;20049;-89
2021/01/16 01:26:08;;;;;;;1.45;0.88;;;1.00;98.30;;;;;;4183668;28;20116;-89
2021/01/16 01:28:09;;;;;;;0.68;0.52;;;1.00;98.30;;;;;;4188407;28;20060;-89
2021/01/16 01:30:11;;;;;;;1.58;1.15;;;1.00;98.20;;;;;;4197992;28;20162;-89
2021/01/16 01:32:12;;;;;;;0.70;0.70;;;1.00;98.30;;;;;;4185341;28;20075;-89
2021/01/16 01:34:14;;;;;;;0.70;0.70;;;1.00;98.30;;;;;;4181346;28;20056;-89
2021/01/16 01:36:15;;;;;;;1.77;1.13;;;1.00;98.70;;;;;;4172622;28;20057;-89
2021/01/16 01:38:17;;;;;;;0.68;0.68;;;0.90;98.50;;;;;;4169898;28;20387;-89
2021/01/16 01:40:19;;;;;;;0.73;0.73;;;1.00;98.50;;;;;;4180209;28;20068;-89
2021/01/16 01:42:21;;;;;;;0.90;0.90;;;0.90;98.60;;;;;;4191862;28;20171;-89
2021/01/16 01:44:22;;;;;;;1.48;1.25;;;0.90;98.80;;;;;;4188165;28;20053;-89
2021/01/16 01:46:24;;;;;;;2.08;1.88;;;1.00;98.80;;;;;;4164478;28;20038;-90
2021/01/16 01:48:25;;;;;;;1.08;0.88;;;1.00;98.90;;;;;;4177399;28;20057;-90
2021/01/16 01:50:28;;;;;;;3.20;1.50;;;1.00;99.00;;;;;;4177083;28;20049;-89
2021/01/16 01:52:29;;;;;;;2.08;1.35;;;1.00;98.90;;;;;;4196925;28;20052;-89
2021/01/16 01:54:30;;;;;;;2.05;1.60;;;0.90;98.50;;;;;;4176048;28;20053;-89
2021/01/16 01:56:32;;;;;;;4.00;1.08;;;0.90;98.50;;;;;;4193483;28;20048;-90
2021/01/16 01:58:33;;;;;;;0.90;0.90;;;1.00;98.40;;;;;;4166010;28;20050;-89
2021/01/16 02:00:34;;;;;;;1.48;0.93;;;1.00;98.50;;;;;;4185101;28;20049;-90
2021/01/16 02:02:37;;;;;;;1.25;1.25;;;1.00;98.20;;;;;;4169615;28;20056;-90
2021/01/16 02:04:39;;;;;;;0.93;0.93;;;1.00;98.00;;;;;;4202305;28;20056;-89
2021/01/16 02:06:40;;;;;;;3.33;1.55;;;1.00;98.10;;;;;;4178076;28;20045;-89
2021/01/16 02:08:43;;;;;;;2.40;1.15;;;0.90;98.00;;;;;;4177785;28;20057;-89
2021/01/16 02:10:44;;;;;;;1.23;1.17;;;0.90;98.00;;;;;;4180169;28;20539;-89
2021/01/16 02:12:46;;;;;;;1.35;1.27;;;0.90;98.30;;;;;;4185262;28;20045;-89
2021/01/16 02:14:53;;;;;;;2.83;1.90;;;0.90;98.30;;;;;;4167540;28;20045;-89
2021/01/16 02:16:54;;;;;;;0.80;0.80;;;0.90;98.10;;;;;;4180421;28;20791;-89
2021/01/16 02:18:57;;;;;;;1.52;1.20;;;0.90;98.20;;;;;;4167532;28;20053;-89
2021/01/16 02:21:00;;;;;;;2.10;1.00;;;0.90;98.20;;;;;;4196603;28;20580;-89
2021/01/16 02:23:07;;;;;;;3.50;0.85;;;1.00;98.40;;;;;;4175296;28;20049;-89
2021/01/16 02:25:09;;;;;;;1.38;1.27;;;1.00;98.40;;;;;;4196879;28;20127;-92
2021/01/16 02:27:13;;;;;;;0.80;0.80;;;1.00;98.50;;;;;;4186562;28;20045;-90
2021/01/16 02:29:14;;;;;;;1.30;1.00;;;1.00;98.30;;;;;;4201121;28;20144;-89
2021/01/16 02:31:16;;;;;;;1.95;1.33;;;1.00;98.10;;;;;;4179448;28;20053;-89
2021/01/16 02:33:19;;;;;;;0.57;0.57;;;1.00;98.00;;;;;;4182636;28;20045;-90
2021/01/16 02:35:21;;;;;;;4.50;1.20;;;1.00;98.00;;;;;;4173784;28;20060;-89
2021/01/16 02:37:40;;;;;;;1.52;1.45;;;1.00;98.20;;;;;;4164137;28;20053;-88
2021/01/16 02:39:53;;;;;;;1.52;1.42;;;1.00;97.80;;;;;;4200925;28;20040;-89
2021/01/16 02:41:57;;;;;;;0.77;0.77;;;1.00;97.90;;;;;;4196336;28;20056;-90
2021/01/16 02:44:11;;;;;;;1.77;0.95;;;1.00;98.00;;;;;;4193041;28;20053;-89
2021/01/16 02:46:38;;;;;;;1.65;1.02;;;1.00;98.20;;;;;;4180972;28;20057;-89
2021/01/16 02:48:43;;;;;;;1.77;1.67;;;0.90;98.20;;;;;;4184705;28;20115;-89
2021/01/16 02:50:48;;;;;;;0.60;0.60;;;0.90;98.30;;;;;;4182089;28;20051;-89
2021/01/16 02:52:50;;;;;;;0.27;0.27;;;0.90;98.30;;;;;;4167585;28;20137;-89
2021/01/16 02:54:51;;;;;;;1.17;1.08;;;0.90;98.30;;;;;;4194458;28;20313;-89
2021/01/16 02:56:53;;;;;;;2.85;1.35;;;0.90;98.50;;;;;;4180712;28;20051;-89
2021/01/16 02:58:54;;;;;;;1.17;1.08;;;0.90;98.40;;;;;;4170906;28;20051;-90
2021/01/16 03:00:56;;;;;;;0.68;0.68;;;0.90;98.50;;;;;;4183530;28;20052;-88
2021/01/16 03:02:57;;;;;;;5.18;1.85;;;0.90;98.30;;;;;;4182456;28;20041;-89
2021/01/16 03:04:59;;;;;;;1.17;1.08;;;0.90;98.60;;;;;;4183322;28;20048;-89
2021/01/16 03:07:02;;;;;;;4.97;0.93;;;0.90;98.60;;;;;;4197511;28;20059;-89
2021/01/16 03:09:04;;;;;;;1.70;1.30;;;0.90;98.70;;;;;;4174004;28;20132;-88
2021/01/16 03:11:05;;;;;;;1.65;1.00;;;0.90;98.60;;;;;;4172917;28;20111;-89
2021/01/16 03:13:06;;;;;;;0.60;0.60;;;0.90;98.50;;;;;;4183275;28;20044;-88
2021/01/16 03:15:12;;;;;;;3.80;1.38;;;0.90;98.70;;;;;;4173838;28;20136;-88
2021/01/16 03:17:14;;;;;;;1.90;1.17;;;0.90;98.90;;;;;;4189680;28;20505;-89
2021/01/16 03:19:16;;;;;;;0.43;0.43;;;0.90;98.60;;;;;;4186594;28;20595;-89
2021/01/16 03:21:17;;;;;;;1.55;1.35;;;0.90;98.70;;;;;;4200876;28;20072;-89
2021/01/16 03:23:18;;;;;;;0.75;0.75;;;0.90;98.70;;;;;;4210083;28;20053;-90
2021/01/16 03:25:21;;;;;;;1.23;0.77;;;0.90;98.70;;;;;;4199476;28;20156;-89
2021/01/16 03:27:22;;;;;;;0.65;0.65;;;0.90;98.80;;;;;;4174369;28;20049;-89
2021/01/16 03:29:23;;;;;;;0.85;0.85;;;0.90;98.80;;;;;;4182178;28;20045;-90
2021/01/16 03:31:25;;;;;;;1.30;1.20;;;0.90;98.70;;;;;;4182287;28;20052;-89
2021/01/16 03:33:27;;;;;;;1.48;1.38;;;0.90;98.80;;;;;;4173576;28;20132;-89
2021/01/16 03:35:28;;;;;;;0.60;0.60;;;0.90;98.80;;;;;;4204087;28;20143;-90
2021/01/16 03:37:30;;;;;;;2.10;1.70;;;0.90;98.90;;;;;;4182531;28;20049;-89
2021/01/16 03:39:31;;;;;;;1.80;1.70;;;0.90;99.00;;;;;;4189742;28;20048;-89
2021/01/16 03:41:32;;;;;;;1.08;1.02;;;0.90;99.00;;;;;;4176188;28;20053;-89
2021/01/16 03:43:34;;;;;;;2.03;1.85;;;0.90;99.10;;;;;;4167307;28;20080;-89
2021/01/16 03:45:35;;;;;;;0.85;0.32;;;0.90;99.10;;;;;;4166439;28;20140;-89
2021/01/16 03:47:37;;;;;;;1.02;0.75;;;0.90;98.90;;;;;;4180578;28;20049;-89
2021/01/16 03:49:39;;;;;;;3.03;1.77;;;0.90;98.80;;;;;;4180212;28;20053;-90
2021/01/16 03:51:40;;;;;;;2.08;0.73;;;0.90;98.30;;;;;;4197763;28;20051;-89
2021/01/16 03:53:41;;;;;;;0.80;0.70;;;0.90;98.40;;;;;;4176752;28;20183;-90
2021/01/16 03:55:43;;;;;;;1.17;1.17;;;0.90;98.30;;;;;;4169544;28;20041;-89
2021/01/16 03:57:45;;;;;;;1.73;1.27;;;0.90;98.30;;;;;;4177814;28;20060;-89
2021/01/16 03:59:46;;;;;;;3.00;1.40;;;0.90;98.30;;;;;;4180085;28;20164;-89
2021/01/16 04:01:47;;;;;;;1.08;1.05;;;0.80;98.40;;;;;;4182107;28;20068;-89
2021/01/16 04:03:49;;;;;;;2.72;1.20;;;0.80;98.60;;;;;;4177856;28;20049;-90
2021/01/16 04:05:51;;;;;;;1.38;1.25;;;0.90;98.80;;;;;;4197773;28;20036;-90
2021/01/16 04:07:52;;;;;;;2.47;2.25;;;0.90;98.60;;;;;;4168377;28;20411;-89
2021/01/16 04:09:56;;;;;;;2.30;1.00;;;0.90;98.50;;;;;;4194912;28;20053;-90
2021/01/16 04:11:58;;;;;;;1.05;1.02;;;0.80;98.40;;;;;;4198090;28;20105;-89
2021/01/16 04:13:59;;;;;;;1.63;1.52;;;0.90;98.50;;;;;;4181365;28;20452;-89
2021/01/16 04:16:00;;;;;;;1.80;1.45;;;0.90;98.60;;;;;;4165738;28;20053;-90
2021/01/16 04:18:03;;;;;;;3.30;1.95;;;0.90;98.40;;;;;;4178598;28;20512;-89
2021/01/16 04:20:04;;;;;;;2.35;1.15;;;0.90;98.60;;;;;;4179344;28;20521;-89
2021/01/16 04:22:06;;;;;;;0.60;0.60;;;0.90;98.30;;;;;;4182030;28;20049;-90
2021/01/16 04:24:08;;;;;;;1.13;1.13;;;0.90;98.30;;;;;;4193667;28;20066;-89
2021/01/16 04:26:09;;;;;;;0.98;0.98;;;0.90;98.50;;;;;;4188188;28;20053;-89
2021/01/16 04:28:10;;;;;;;1.60;1.50;;;0.90;98.50;;;;;;4182259;28;20056;-89
2021/01/16 04:30:12;;;;;;;2.70;1.70;;;0.80;98.40;;;;;;4180259;28;20049;-89
2021/01/16 04:32:13;;;;;;;2.00;1.23;;;0.80;98.90;;;;;;4173140;28;20045;-89
2021/01/16 04:34:14;;;;;;;1.17;0.98;;;0.80;98.70;;;;;;4186245;28;20061;-89
2021/01/16 04:36:16;;;;;;;0.47;0.47;;;0.80;98.80;;;;;;4198935;28;20075;-89
2021/01/16 04:38:17;;;;;;;1.13;1.02;;;0.80;98.30;;;;;;4177596;28;20053;-89
2021/01/16 04:40:18;;;;;;;0.68;0.68;;;0.80;98.70;;;;;;4181814;28;20049;-89
2021/01/16 04:42:19;;;;;;;4.80;2.22;;;0.80;98.80;;;;;;4173086;28;20041;-89
2021/01/16 04:44:21;;;;;;;0.30;0.30;;;0.80;98.70;;;;;;4171520;28;20060;-89
2021/01/16 04:46:23;;;;;;;2.15;2.00;;;0.80;98.60;;;;;;4181512;28;20059;-89
2021/01/16 04:48:24;;;;;;;1.80;1.08;;;0.90;98.70;;;;;;4183656;28;20072;-91
2021/01/16 04:50:30;;;;;;;25.42;2.28;;;0.80;98.80;;;;;;4182457;28;20070;-91
2021/01/16 04:52:31;;;;;;;0.40;0.40;;;0.80;98.70;;;;;;4182279;28;20121;-92
2021/01/16 04:54:32;;;;;;;1.17;1.08;;;0.80;98.60;;;;;;4175265;28;20144;-89
2021/01/16 04:56:35;;;;;;;6.05;1.58;;;0.80;98.70;;;;;;4178433;28;20053;-88
2021/01/16 04:58:37;;;;;;;0.93;0.88;;;0.80;98.60;;;;;;4197812;28;20128;-89
2021/01/16 05:00:40;;;;;;;1.15;0.90;;;0.80;98.80;;;;;;4179824;28;20127;-90
2021/01/16 05:02:42;;;;;;;1.00;0.98;;;0.80;98.80;;;;;;4178704;28;20051;-90
2021/01/16 05:04:44;;;;;;;1.55;1.33;;;0.80;98.80;;;;;;4197659;28;20052;-90
2021/01/16 05:06:46;;;;;;;1.65;1.15;;;0.80;98.90;;;;;;4186292;28;20049;-89
2021/01/16 05:08:47;;;;;;;1.10;0.98;;;0.80;98.70;;;;;;4189713;28;20053;-92
2021/01/16 05:10:49;;;;;;;1.70;1.60;;;0.80;98.60;;;;;;4184936;28;20477;-89
2021/01/16 05:13:10;;;;;;;1.05;1.05;;;0.80;98.60;;;;;;4185609;28;20456;-88
2021/01/16 05:15:21;;;;;;;0.38;0.38;;;0.80;99.00;;;;;;4192894;28;20218;-88
2021/01/16 05:17:23;;;;;;;1.33;1.30;;;0.80;98.80;;;;;;4192768;28;20052;-88
2021/01/16 05:19:27;;;;;;;1.20;1.10;;;0.70;99.10;;;;;;4182140;28;20072;-90
2021/01/16 05:21:29;;;;;;;0.70;0.50;;;0.80;98.70;;;;;;4198089;28;20143;-89
2021/01/16 05:23:30;;;;;;;2.20;1.52;;;0.80;98.80;;;;;;4179598;28;20052;-89
2021/01/16 05:25:31;;;;;;;2.50;1.33;;;0.80;99.10;;;;;;4165708;28;20049;-88
2021/01/16 05:27:34;;;;;;;0.88;0.88;;;0.80;99.00;;;;;;4181844;28;20059;-88
2021/01/16 05:29:36;;;;;;;0.50;0.50;;;0.80;98.80;;;;;;4181780;28;20049;-89
2021/01/16 05:31:37;;;;;;;2.33;1.38;;;0.70;99.00;;;;;;4198074;28;20052;-89
2021/01/16 05:33:39;;;;;;;1.20;1.00;;;0.70;98.90;;;;;;4181699;28;20045;-89
2021/01/16 05:35:41;;;;;;;0.70;0.70;;;0.80;99.00;;;;;;4175901;28;20048;-91
2021/01/16 05:37:45;;;;;;;0.70;0.70;;;0.80;98.80;;;;;;4181618;28;20128;-89
2021/01/16 05:39:46;;;;;;;2.85;2.58;;;0.80;99.10;;;;;;4180887;28;20041;-89
2021/01/16 05:41:47;;;;;;;0.75;0.68;;;0.80;98.80;;;;;;4172284;28;20049;-89
2021/01/16 05:43:48;;;;;;;1.65;0.65;;;0.80;98.90;;;;;;4167988;28;20065;-89
2021/01/16 05:46:01;;;;;;;1.35;0.98;;;0.80;98.90;;;;;;4184093;28;20051;-88
2021/01/16 05:48:16;;;;;;;0.82;0.82;;;0.80;99.20;;;;;;4215658;27;20364;-88
2021/01/16 05:50:17;;;;;;;0.95;0.88;;;0.80;98.90;;;;;;4174422;28;20136;-88
2021/01/16 05:52:19;;;;;;;0.93;0.82;;;0.80;98.90;;;;;;4211113;28;20509;-89
2021/01/16 05:54:20;;;;;;;2.58;1.25;;;0.80;99.00;;;;;;4193198;28;20501;-89
2021/01/16 05:56:22;;;;;;;2.38;1.52;;;0.80;98.90;;;;;;4178232;28;20045;-90
2021/01/16 05:58:27;;;;;;;0.65;0.65;;;0.80;98.80;;;;;;4178404;28;20132;-88
2021/01/16 06:00:29;;;;;;;2.72;0.93;;;0.80;98.70;;;;;;4192460;28;20044;-89
2021/01/16 06:02:31;;;;;;;1.10;1.00;;;0.80;98.90;;;;;;4194217;28;20059;-88
2021/01/16 06:04:33;;;;;;;1.00;1.00;;;0.80;98.90;;;;;;4178245;28;20049;-88
2021/01/16 06:06:36;;;;;;;1.23;1.10;;;0.80;98.80;;;;;;4205248;28;20079;-88
2021/01/16 06:08:53;;;;;;;0.80;0.80;;;0.80;98.30;;;;;;4194488;28;20060;-88
2021/01/16 06:10:57;;;;;;;1.17;1.17;;;0.80;98.40;;;;;;4179449;28;20499;-87
2021/01/16 06:13:10;;;;;;;2.28;1.63;;;0.80;98.00;;;;;;4194967;28;20057;-89
2021/01/16 06:15:16;;;;;;;3.33;0.85;;;0.70;98.00;;;;;;4194860;28;20083;-88
2021/01/16 06:17:18;;;;;;;2.17;1.23;;;0.70;97.60;;;;;;4194109;28;20153;-89
2021/01/16 06:19:30;;;;;;;1.55;1.05;;;0.70;97.70;;;;;;4194479;28;20066;-89
2021/01/16 06:21:31;;;;;;;1.52;1.42;;;0.70;97.90;;;;;;4194377;28;20132;-88
2021/01/16 06:23:32;;;;;;;2.55;1.48;;;0.70;97.90;;;;;;4193786;28;20049;-89
2021/01/16 06:25:34;;;;;;;3.30;1.67;;;0.70;97.30;;;;;;4192755;28;20048;-88
2021/01/16 06:27:36;;;;;;;1.10;1.10;;;0.70;97.90;;;;;;4194162;28;20057;-84
2021/01/16 06:29:37;;;;;;;1.17;1.08;;;0.70;97.90;;;;;;4178138;28;20135;-87
2021/01/16 06:31:39;;;;;;;2.15;1.95;;;0.70;97.70;;;;;;4210717;28;20086;-88
2021/01/16 06:33:40;;;;;;;0.65;0.65;;;0.60;97.60;;;;;;4210637;28;20144;-89
2021/01/16 06:35:42;;;;;;;0.98;0.98;;;0.70;97.60;;;;;;4169914;28;20064;-88
2021/01/16 06:37:50;;;;;;;0.38;0.38;;;0.70;97.20;;;;;;4194180;28;20071;-88
2021/01/16 06:39:51;;;;;;;1.98;1.88;;;0.70;96.80;;;;;;4190277;28;20523;-88
2021/01/16 06:41:53;;;;;;;3.78;2.35;;;0.70;96.30;;;;;;4191507;28;20045;-89
2021/01/16 06:43:54;;;;;;;1.45;1.35;;;0.70;96.80;;;;;;4193519;28;20122;-89
2021/01/16 06:46:14;;;;;;;0.40;0.40;;;0.70;96.70;;;;;;4194062;28;20524;-89
2021/01/16 06:48:16;;;;;;;1.20;1.10;;;0.70;96.70;;;;;;4178391;28;20140;-88
2021/01/16 06:50:17;;;;;;;0.57;0.57;;;0.70;96.90;;;;;;4181102;28;20601;-88
2021/01/16 06:52:19;;;;;;;0.32;0.32;;;0.70;96.60;;;;;;4193494;28;20055;-88
2021/01/16 06:54:25;;;;;;;0.60;0.60;;;0.70;96.50;;;;;;4192686;28;20065;-89
2021/01/16 06:56:26;;;;;;;1.27;1.13;;;0.70;96.40;;;;;;4205168;28;20048;-87
2021/01/16 06:58:27;;;;;;;4.40;2.00;;;0.70;96.30;;;;;;4191045;28;20049;-88
2021/01/16 07:00:29;;;;;;;0.77;0.77;;;0.70;96.90;;;;;;4167225;28;20049;-88
2021/01/16 07:02:32;;;;;;;0.73;0.55;;;0.70;97.30;;;;;;4208511;28;20048;-89
2021/01/16 07:04:34;;;;;;;0.95;0.95;;;0.70;97.70;;;;;;4166689;28;20129;-89
2021/01/16 07:06:48;;;;;;;3.05;1.98;;;0.70;98.20;;;;;;4180919;28;20056;-88
2021/01/16 07:08:49;;;;;;;1.73;1.42;;;0.70;98.20;;;;;;4180171;28;20041;-88
2021/01/16 07:10:51;;;;;;;1.65;1.55;;;0.70;98.40;;;;;;4162600;28;20509;-88
2021/01/16 07:12:52;;;;;;;1.20;1.10;;;0.70;98.70;;;;;;4179068;28;20057;-89
2021/01/16 07:14:54;;;;;;;1.85;0.60;;;0.70;99.10;;;;;;4170551;28;20041;-88
2021/01/16 07:16:55;;;;;;;1.15;1.13;;;0.60;99.20;;;;;;4171262;28;20143;-88
2021/01/16 07:18:56;;;;;;;1.13;1.08;;;0.70;99.20;;;;;;4199571;28;20049;-88
2021/01/16 07:20:59;;;;;;;1.60;1.48;;;0.60;99.30;;;;;;4182417;28;20049;-89
2021/01/16 07:23:00;;;;;;;1.90;1.60;;;0.60;99.40;;;;;;4179388;28;20458;-88
2021/01/16 07:25:03;;;;;;;1.38;1.20;;;0.70;99.40;;;;;;4182496;28;20145;-89
2021/01/16 07:27:04;;;;;;;1.30;1.20;;;0.60;99.20;;;;;;4198020;28;20053;-87
2021/01/16 07:29:07;;;;;;;1.98;1.88;;;0.60;99.40;;;;;;4196572;28;20049;-87
2021/01/16 07:31:08;;;;;;;0.93;0.70;;;0.60;99.20;;;;;;4199018;28;20052;-88
2021/01/16 07:33:10;;;;;;;0.50;0.50;;;0.50;99.30;;;;;;4198810;28;20140;-89
2021/01/16 07:35:12;;;;;;;1.52;1.42;;;0.50;99.30;;;;;;4186302;28;20044;-89
2021/01/16 07:37:14;;;;;;;1.50;1.40;;;0.40;99.60;;;;;;4165714;28;20060;-91
2021/01/16 07:39:15;;;;;;;1.80;1.70;;;0.40;99.40;;;;;;4179654;28;20135;-90
2021/01/16 07:41:16;;;;;;;1.48;1.35;;;0.40;99.60;;;;;;4174266;28;20037;-88
2021/01/16 07:43:33;;;;;;;2.40;1.52;;;0.30;99.70;;;;;;4181833;28;20131;-89
2021/01/16 07:45:37;;;;;;;1.63;1.45;;;0.30;99.60;;;;;;4196783;28;20119;-88
2021/01/16 07:47:40;;;;;;;2.17;2.00;;;0.40;99.40;;;;;;4181935;28;20143;-88
2021/01/16 07:49:42;;;;;;;1.40;1.30;;;0.40;99.60;;;;;;4163123;28;20042;-89
2021/01/16 07:51:43;;;;;;;1.60;1.50;;;0.40;99.40;;;;;;4182314;28;20052;-88
2021/01/16 07:53:45;;;;;;;0.88;0.88;;;0.40;99.30;;;;;;4165153;28;20049;-88
2021/01/16 07:55:46;;;;;;;1.75;1.65;;;0.40;99.50;;;;;;4182400;28;20055;-88
2021/01/16 07:57:51;;;;;;;1.95;1.85;;;0.40;99.60;;;;;;4166168;28;20049;-88
2021/01/16 07:59:54;;;;;;;0.85;0.77;;;0.40;99.40;;;;;;4163792;28;20524;-80
2021/01/16 08:01:58;;;;;;;2.15;1.15;;;0.40;98.60;;;;;;4178880;28;20076;-80
2021/01/16 08:04:27;;;;;;;2.85;1.30;;;0.40;98.20;;;;;;4197528;28;20052;-81
2021/01/16 08:06:31;;;;;;;0.77;0.77;;;0.40;98.70;;;;;;4197479;28;20135;-82
2021/01/16 08:08:48;;;;;;;0.85;0.85;;;0.50;98.90;;;;;;4196119;28;20458;-81
2021/01/16 08:10:53;;;;;;;0.63;0.63;;;0.40;98.90;;;;;;4194466;28;20132;-82
2021/01/16 08:12:57;;;;;;;1.80;1.63;;;0.40;98.70;;;;;;4198430;28;20076;-80
2021/01/16 08:15:02;;;;;;;3.33;1.60;;;0.40;98.70;;;;;;4161001;28;20524;-81
2021/01/16 08:17:03;;;;;;;1.48;1.48;;;0.40;99.00;;;;;;4194706;28;20445;-81
2021/01/16 08:19:10;;;;;;;3.10;1.63;;;0.40;98.00;;;;;;4196515;28;20044;-82
2021/01/16 08:21:11;;;;;;;1.25;1.02;;;0.40;98.10;;;;;;4209780;28;20134;-83
2021/01/16 08:23:21;;;;;;;0.80;0.57;;;0.40;98.10;;;;;;4194924;28;20544;-82
2021/01/16 08:25:25;;;;;;;1.67;1.33;;;0.40;97.70;;;;;;4214101;28;20047;-80
2021/01/16 08:27:26;;;;;;;1.52;1.42;;;0.30;97.60;;;;;;4212597;28;20106;-84
2021/01/16 08:29:28;;;;;;;1.38;0.90;;;0.40;97.80;;;;;;4194453;28;20044;-81
2021/01/16 08:31:30;;;;;;;1.80;1.55;;;0.40;97.80;;;;;;4195933;28;20056;-84
2021/01/16 08:33:35;;;;;;;1.63;1.52;;;0.40;97.60;;;;;;4196661;28;20390;-81
2021/01/16 08:35:39;;;;;;;0.60;0.60;;;0.50;97.20;;;;;;4195787;28;20087;-80
2021/01/16 08:37:40;;;;;;;1.90;1.65;;;0.40;97.20;;;;;;4195602;28;20389;-83
2021/01/16 08:39:44;;;;;;;0.38;0.38;;;0.40;97.20;;;;;;4196517;28;20493;-82
2021/01/16 08:41:46;;;;;;;1.45;1.35;;;0.40;97.10;;;;;;4194853;28;20044;-82
2021/01/16 08:43:50;;;;;;;1.33;1.00;;;0.40;97.00;;;;;;4178097;28;20046;-82
2021/01/16 08:46:08;;;;;;;1.70;1.15;;;0.40;97.00;;;;;;4192558;28;20078;-82
2021/01/16 08:48:10;;;;;;;2.08;1.88;;;0.40;96.60;;;;;;4194221;28;20087;-82
2021/01/16 08:50:14;;;;;;;17.83;2.58;;;0.40;96.90;;;;;;4195619;28;20136;-81
2021/01/16 08:52:34;;;;;;;1.30;1.23;;;0.40;96.90;;;;;;4196516;28;20055;-81
2021/01/16 08:54:36;;;;;;;1.73;1.63;;;0.40;97.40;;;;;;4195044;28;20485;-82
2021/01/16 08:56:41;;;;;;;1.30;1.20;;;0.50;97.10;;;;;;4194209;28;20555;-80
2021/01/16 08:58:42;;;;;;;1.98;1.33;;;0.50;96.80;;;;;;4161608;28;20052;-80
2021/01/16 09:00:43;;;;;;;1.20;1.13;;;0.50;96.60;;;;;;4195762;28;20048;-81
2021/01/16 09:03:04;;;;;;;2.08;1.88;;;0.50;96.60;;;;;;4177671;28;20048;-82
2021/01/16 09:05:21;;;;;;;1.15;1.05;;;0.50;96.40;;;;;;4179199;28;20059;-82
2021/01/16 09:07:23;;;;;;;1.55;1.45;;;0.50;97.00;;;;;;4196571;28;20063;-82
2021/01/16 09:09:26;;;;;;;0.52;0.52;;;0.60;97.20;;;;;;4195068;28;20090;-81
2021/01/16 09:11:28;;;;;;;0.63;0.63;;;0.60;96.50;;;;;;4194804;28;20051;-81
2021/01/16 09:13:30;;;;;;;1.67;1.38;;;0.60;96.40;;;;;;4194991;28;20052;-82
2021/01/16 09:15:40;;;;;;;1.30;1.23;;;0.60;96.60;;;;;;4196145;28;20056;-83
2021/01/16 09:18:13;;;;;;;1.10;0.95;;;0.60;96.40;;;;;;4194390;28;20043;-82
2021/01/16 09:20:15;;;;;;;0.80;0.55;;;0.60;95.90;;;;;;4195296;28;20159;-84
2021/01/16 09:22:21;;;;;;;2.88;1.80;;;0.60;96.50;;;;;;4195847;28;20072;-82
2021/01/16 09:24:22;;;;;;;1.17;1.08;;;0.60;96.50;;;;;;4195625;28;20045;-82
2021/01/16 09:26:25;;;;;;;0.90;0.90;;;0.60;96.50;;;;;;4192183;28;20128;-82
2021/01/16 09:29:00;;;;;;;1.42;0.75;;;0.60;96.40;;;;;;4162707;28;20076;-82
2021/01/16 09:31:08;;;;;;;1.27;1.17;;;0.70;96.80;;;;;;4178770;28;20110;-82
2021/01/16 09:33:23;;;;;;;1.83;1.00;;;0.70;96.70;;;;;;4162709;28;20050;-81
2021/01/16 09:35:42;;;;;;;2.10;1.38;;;0.70;95.90;;;;;;4158759;28;20049;-83
2021/01/16 09:37:43;;;;;;;0.93;0.93;;;0.70;96.10;;;;;;4178014;28;20057;-83
2021/01/16 09:39:44;;;;;;;1.88;0.85;;;0.80;96.20;;;;;;4161793;28;20041;-81
2021/01/16 09:41:50;;;;;;;0.98;0.98;;;0.80;96.60;;;;;;4161685;28;20080;-82
2021/01/16 09:43:51;;;;;;;1.42;0.93;;;0.80;95.40;;;;;;4178140;28;20043;-81
2021/01/16 09:45:56;;;;;;;1.30;0.88;;;0.80;95.60;;;;;;4195024;28;20244;-81
2021/01/16 09:47:57;;;;;;;1.05;1.00;;;0.70;95.90;;;;;;4162169;28;20056;-81
2021/01/16 09:50:02;;;;;;;1.08;0.50;;;0.70;95.80;;;;;;4177951;28;20037;-81
2021/01/16 09:52:03;;;;;;;1.60;1.48;;;0.70;95.80;;;;;;4195023;28;20536;-81
2021/01/16 09:54:08;;;;;;;0.85;0.77;;;0.70;95.70;;;;;;4140661;28;20554;-81
2021/01/16 09:56:09;;;;;;;1.10;1.00;;;0.70;95.20;;;;;;4194754;28;20089;-81
2021/01/16 09:58:36;;;;;;;0.95;0.95;;;0.60;95.10;;;;;;4195141;28;20053;-83
2021/01/16 10:00:37;;;;;;;2.28;1.65;;;0.70;95.40;;;;;;4193206;28;20511;-81
2021/01/16 10:02:43;;;;;;;1.90;1.80;;;0.70;94.80;;;;;;4177601;28;20413;-81
2021/01/16 10:04:44;;;;;;;0.52;0.52;;;0.60;94.40;;;;;;4176452;28;20037;-82
2021/01/16 10:06:46;;;;;;;1.38;1.15;;;0.60;94.50;;;;;;4186430;28;20058;-82
2021/01/16 10:08:48;;;;;;;1.48;1.05;;;0.60;95.00;;;;;;4193870;28;20051;-81
2021/01/16 10:10:50;;;;;;;0.40;0.40;;;0.60;94.60;;;;;;4194679;28;20041;-81
2021/01/16 10:13:00;;;;;;;1.63;1.25;;;0.60;95.20;;;;;;4195895;28;20059;-80
2021/01/16 10:15:09;;;;;;;0.68;0.68;;;0.70;95.70;;;;;;4194388;28;20040;-80
2021/01/16 10:17:11;;;;;;;1.50;1.40;;;0.70;95.30;;;;;;4194768;28;20040;-82
2021/01/16 10:19:15;;;;;;;3.17;2.13;;;0.80;94.90;;;;;;4195732;28;20048;-81
2021/01/16 10:21:17;;;;;;;2.53;1.55;;;0.80;94.70;;;;;;4193522;28;20040;-81
2021/01/16 10:23:18;;;;;;;3.00;1.45;;;0.80;94.30;;;;;;4177108;28;20048;-81
2021/01/16 10:25:20;;;;;;;0.80;0.80;;;0.80;94.60;;;;;;4178961;28;20497;-81
2021/01/16 10:27:46;;;;;;;2.35;1.80;;;0.80;94.40;;;;;;4192546;28;20045;-81
2021/01/16 10:29:48;;;;;;;1.73;1.63;;;0.70;94.50;;;;;;4178287;28;20481;-82
2021/01/16 10:31:49;;;;;;;1.25;1.15;;;0.80;94.70;;;;;;4193698;28;20045;-80
2021/01/16 10:33:53;;;;;;;1.15;0.75;;;0.80;94.60;;;;;;4196627;28;20508;-81
2021/01/16 10:36:24;;;;;;;0.32;0.32;;;0.90;94.60;;;;;;4180042;28;20052;-82
2021/01/16 10:38:43;;;;;;;1.27;1.17;;;0.90;94.60;;;;;;4192343;28;20052;-80
2021/01/16 10:40:50;;;;;;;0.20;0.20;;;0.80;94.50;;;;;;4197051;28;20131;-82
2021/01/16 10:42:59;;;;;;;0.40;0.40;;;0.80;94.70;;;;;;4211149;28;20421;-82
2021/01/16 10:45:01;;;;;;;0.30;0.30;;;0.80;95.00;;;;;;4198255;28;20066;-81
2021/01/16 10:47:02;;;;;;;0.85;0.85;;;0.80;95.00;;;;;;4196221;28;20051;-79
2021/01/16 10:49:20;;;;;;;1.05;0.82;;;0.90;95.10;;;;;;4198244;28;20052;-82
2021/01/16 10:51:23;;;;;;;16.83;1.17;;;0.80;95.10;;;;;;4195264;28;20510;-81
2021/01/16 10:53:40;;;;;;;0.55;0.55;;;0.80;95.40;;;;;;4193936;28;20056;-78